SBSM/RIA METAR and TAF weather

Enter ICAO airport designator
Station Type Date Time Source
SBSM METAR 2019/10/14 03:00 UTC NOAA

SBSM 140300Z 12004KT CAVOK 20/18 Q1015


Station Type Date Time Source
SBSM Decoded METAR 2019/10/14 03:00 UTC NOAA

Santa Maria Aero-Porto , Brazil (SBSM) 29-43S 053-42W
Oct 13, 2019 - 11:00 PM EDT / 2019.10.14 0300 UTC
Wind: from the ESE (120 degrees) at 5 MPH (4 KT):0
Visibility: greater than 7 mile(s):0
Temperature: 68 F (20 C)
Dew Point: 64 F (18 C)
Relative Humidity: 88%
Pressure (altimeter): 29.97 in. Hg (1015 hPa)
ob: SBSM 140300Z 12004KT CAVOK 20/18 Q1015
cycle: 3

Station Type Date Time Source
SBSM TAF 2019/10/14 00:33 UTC NOAA

TAF SBSM 132130Z 1400/1412 13013KT 8000 SCT015 FEW030TCU TN22/1406Z TX24/1412Z
BECMG 1405/1407 13013KT BKN007
RMK PEN

Example: see airport list